KRAL/RAL METAR and TAF weather

Enter ICAO airport designator
Station Type Date Time Source
KRAL METAR 2019/02/22 22:53 UTC NOAA

KRAL 222253Z VRB03KT 10SM SCT080 14/M06 A3000 RMK AO2 SLP152 T01441056


Station Type Date Time Source
KRAL Decoded METAR 2019/02/22 22:53 UTC NOAA

RIVERSIDE MUNICIPAL AIRPORT , CA, United States (KRAL) 33-57N 117-27W 252M
Feb 22, 2019 - 05:53 PM EST / 2019.02.22 2253 UTC
Wind: Variable at 3 MPH (3 KT):0
Visibility: 10 mile(s):0
Sky conditions: partly cloudy
Temperature: 57.9 F (14.4 C)
Dew Point: 21.9 F (-5.6 C)
Relative Humidity: 24%
Pressure (altimeter): 30 in. Hg (1015 hPa)
ob: KRAL 222253Z VRB03KT 10SM SCT080 14/M06 A3000 RMK AO2 SLP152 T01441056
cycle: 23

Station Type Date Time Source
KRAL TAF UTC NOAA

Error!


Example: see airport list